Time;durP1;ratioP1;P1;durP2;ratioP2;P2;SDS_P1;SDS_P2;PMS_P1;PMS_P2;Temp;Humidity;BMP_temperature;BMP_pressure;BME280_temperature;BME280_humidity;BME280_pressure;Samples;Min_cycle;Max_cycle;Signal;HPM_P1;HPM_P2
2021/09/28 00:01:02;;;;;;;0.00;0.00;;;;;;;;;;4967338;28;20889;-65
2021/09/28 00:03:30;;;;;;;0.00;0.00;;;;;;;;;;4950093;28;20130;-66
2021/09/28 00:05:55;;;;;;;0.10;0.10;;;;;;;;;;4943001;28;20113;-65
2021/09/28 00:08:21;;;;;;;0.00;0.00;;;;;;;;;;4965736;28;20073;-66
2021/09/28 00:10:51;;;;;;;0.00;0.00;;;;;;;;;;4965586;28;20066;-65
2021/09/28 00:13:21;;;;;;;0.00;0.00;;;;;;;;;;4932223;28;20042;-65
2021/09/28 00:15:47;;;;;;;0.00;0.00;;;;;;;;;;4968419;28;20122;-67
2021/09/28 00:18:17;;;;;;;0.30;0.30;;;;;;;;;;4966975;28;22035;-64
2021/09/28 00:20:45;;;;;;;0.00;0.00;;;;;;;;;;4929249;28;20038;-65
2021/09/28 00:23:16;;;;;;;0.10;0.10;;;;;;;;;;4945323;28;20473;-65
2021/09/28 00:29:16;;;;;;;0.38;0.38;;;;;;;;;;4969258;28;20065;-65
2021/09/28 00:31:47;;;;;;;0.00;0.00;;;;;;;;;;4944510;28;20051;-64
2021/09/28 00:34:14;;;;;;;0.30;0.30;;;;;;;;;;4926554;28;20057;-64
2021/09/28 00:36:44;;;;;;;0.00;0.00;;;;;;;;;;4950902;28;20518;-65
2021/09/28 00:39:15;;;;;;;0.00;0.00;;;;;;;;;;4943264;28;20042;-64
2021/09/28 00:41:43;;;;;;;0.45;0.38;;;;;;;;;;4965730;28;22539;-65
2021/09/28 00:44:14;;;;;;;0.00;0.00;;;;;;;;;;4944653;28;20035;-65
2021/09/28 00:46:45;;;;;;;0.10;0.10;;;;;;;;;;4927649;28;20790;-65
2021/09/28 00:49:12;;;;;;;0.05;0.05;;;;;;;;;;4945886;28;20495;-64
2021/09/28 00:51:38;;;;;;;0.03;0.03;;;;;;;;;;4951877;28;20157;-65
2021/09/28 00:54:07;;;;;;;0.00;0.00;;;;;;;;;;4952382;28;22230;-65
2021/09/28 00:56:35;;;;;;;0.13;0.13;;;;;;;;;;4932525;28;20030;-65
2021/09/28 00:59:01;;;;;;;0.00;0.00;;;;;;;;;;4935784;28;20034;-66
2021/09/28 01:01:29;;;;;;;0.10;0.10;;;;;;;;;;4930722;28;20037;-66
2021/09/28 01:03:54;;;;;;;0.00;0.00;;;;;;;;;;4958614;28;20679;-66
2021/09/28 01:06:22;;;;;;;0.00;0.00;;;;;;;;;;4948739;28;20110;-65
2021/09/28 01:08:49;;;;;;;0.00;0.00;;;;;;;;;;4942315;28;20027;-65
2021/09/28 01:11:17;;;;;;;0.15;0.15;;;;;;;;;;4951605;28;20050;-65
2021/09/28 01:13:45;;;;;;;0.43;0.40;;;;;;;;;;4975324;28;20030;-66
2021/09/28 01:16:11;;;;;;;0.00;0.00;;;;;;;;;;4928077;28;20043;-66
2021/09/28 01:18:42;;;;;;;0.00;0.00;;;;;;;;;;4953454;28;20025;-65
2021/09/28 01:21:11;;;;;;;0.00;0.00;;;;;;;;;;4953179;28;20037;-65
2021/09/28 01:23:48;;;;;;;0.00;0.00;;;;;;;;;;4950918;28;20049;-64
2021/09/28 01:26:24;;;;;;;0.00;0.00;;;;;;;;;;4943243;28;20038;-64
2021/09/28 01:28:52;;;;;;;0.00;0.00;;;;;;;;;;4943690;28;20105;-64
2021/09/28 01:31:23;;;;;;;0.00;0.00;;;;;;;;;;4925920;28;20041;-65
2021/09/28 01:33:56;;;;;;;0.00;0.00;;;;;;;;;;4951634;28;20042;-66
2021/09/28 01:36:26;;;;;;;0.00;0.00;;;;;;;;;;4965823;28;20706;-65
2021/09/28 01:38:56;;;;;;;0.10;0.10;;;;;;;;;;4958153;28;20026;-64
2021/09/28 01:41:22;;;;;;;0.00;0.00;;;;;;;;;;4964664;28;20030;-65
2021/09/28 01:43:50;;;;;;;0.10;0.10;;;;;;;;;;4966665;28;20030;-67
2021/09/28 01:46:23;;;;;;;0.00;0.00;;;;;;;;;;4963582;28;20784;-66
2021/09/28 01:48:54;;;;;;;0.00;0.00;;;;;;;;;;4944309;28;20030;-65
2021/09/28 01:51:20;;;;;;;0.00;0.00;;;;;;;;;;4948555;28;20160;-63
2021/09/28 01:53:47;;;;;;;0.00;0.00;;;;;;;;;;4926458;28;20698;-65
2021/09/28 01:56:20;;;;;;;0.00;0.00;;;;;;;;;;4939360;28;20030;-65
2021/09/28 01:58:50;;;;;;;0.00;0.00;;;;;;;;;;4933336;28;20076;-65
2021/09/28 02:01:21;;;;;;;0.00;0.00;;;;;;;;;;4942845;28;20034;-64
2021/09/28 02:03:46;;;;;;;0.00;0.00;;;;;;;;;;4965459;28;20137;-64
2021/09/28 02:06:22;;;;;;;0.10;0.10;;;;;;;;;;4941478;28;20117;-64
2021/09/28 02:08:50;;;;;;;0.00;0.00;;;;;;;;;;4942671;28;20037;-64
2021/09/28 02:11:18;;;;;;;0.00;0.00;;;;;;;;;;4935804;28;20038;-63
2021/09/28 02:13:49;;;;;;;0.00;0.00;;;;;;;;;;4951875;28;20031;-64
2021/09/28 02:16:15;;;;;;;0.00;0.00;;;;;;;;;;4941575;28;20053;-65
2021/09/28 02:18:43;;;;;;;0.22;0.22;;;;;;;;;;4941141;28;20046;-63
2021/09/28 02:21:11;;;;;;;0.00;0.00;;;;;;;;;;4940878;28;20478;-64
2021/09/28 02:23:36;;;;;;;0.00;0.00;;;;;;;;;;4959496;28;20437;-64
2021/09/28 02:26:04;;;;;;;0.00;0.00;;;;;;;;;;4941566;28;20030;-64
2021/09/28 02:28:30;;;;;;;0.00;0.00;;;;;;;;;;4960977;28;20035;-64
2021/09/28 02:30:55;;;;;;;0.00;0.00;;;;;;;;;;4933012;28;20049;-63
2021/09/28 02:33:20;;;;;;;0.00;0.00;;;;;;;;;;4936660;28;20060;-63
2021/09/28 02:35:48;;;;;;;0.10;0.10;;;;;;;;;;4954330;28;20061;-65
2021/09/28 02:38:16;;;;;;;0.00;0.00;;;;;;;;;;4936655;28;20066;-63
2021/09/28 02:40:44;;;;;;;0.00;0.00;;;;;;;;;;4956242;28;20910;-63
2021/09/28 02:43:14;;;;;;;0.00;0.00;;;;;;;;;;4950919;28;20061;-64
2021/09/28 02:45:40;;;;;;;0.00;0.00;;;;;;;;;;4945622;28;20433;-63
2021/09/28 02:48:06;;;;;;;0.00;0.00;;;;;;;;;;4950387;28;20030;-64
2021/09/28 02:50:35;;;;;;;0.00;0.00;;;;;;;;;;4955309;28;20050;-64
2021/09/28 02:53:02;;;;;;;0.00;0.00;;;;;;;;;;4930673;28;20133;-63
2021/09/28 02:55:34;;;;;;;0.00;0.00;;;;;;;;;;4928003;28;20022;-63
2021/09/28 02:58:02;;;;;;;0.00;0.00;;;;;;;;;;4943464;28;20591;-64
2021/09/28 03:00:28;;;;;;;0.00;0.00;;;;;;;;;;4933663;28;20039;-62
2021/09/28 03:02:55;;;;;;;0.00;0.00;;;;;;;;;;4934210;28;20038;-64
2021/09/28 03:05:25;;;;;;;0.00;0.00;;;;;;;;;;4951954;28;20061;-62
2021/09/28 03:07:51;;;;;;;0.00;0.00;;;;;;;;;;4916718;28;20038;-62
2021/09/28 03:10:16;;;;;;;0.00;0.00;;;;;;;;;;4933878;28;20052;-64
2021/09/28 03:12:41;;;;;;;0.00;0.00;;;;;;;;;;4951009;28;20042;-63
2021/09/28 03:15:09;;;;;;;0.00;0.00;;;;;;;;;;4928809;28;20034;-62
2021/09/28 03:17:40;;;;;;;0.00;0.00;;;;;;;;;;4953219;28;20092;-64
2021/09/28 03:20:10;;;;;;;0.10;0.10;;;;;;;;;;4951039;28;20039;-63
2021/09/28 03:22:36;;;;;;;0.00;0.00;;;;;;;;;;4969337;28;20030;-63
2021/09/28 03:25:05;;;;;;;0.65;0.52;;;;;;;;;;4967309;28;20109;-62
2021/09/28 03:27:30;;;;;;;0.00;0.00;;;;;;;;;;4956757;28;20488;-63
2021/09/28 03:29:58;;;;;;;0.10;0.10;;;;;;;;;;4944149;28;20022;-64
2021/09/28 03:32:26;;;;;;;0.00;0.00;;;;;;;;;;4949928;28;20069;-62
2021/09/28 03:34:52;;;;;;;0.00;0.00;;;;;;;;;;4945632;28;20046;-63
2021/09/28 03:37:17;;;;;;;0.30;0.30;;;;;;;;;;4924786;28;20046;-62
2021/09/28 03:39:45;;;;;;;0.20;0.20;;;;;;;;;;4936531;28;20042;-62
2021/09/28 03:42:13;;;;;;;0.63;0.43;;;;;;;;;;4933389;28;20190;-62
2021/09/28 03:44:41;;;;;;;0.10;0.10;;;;;;;;;;4925459;28;20096;-62
2021/09/28 03:47:09;;;;;;;0.20;0.20;;;;;;;;;;4965300;28;20105;-62
2021/09/28 03:49:36;;;;;;;0.00;0.00;;;;;;;;;;4941568;28;20125;-63
2021/09/28 03:52:02;;;;;;;0.00;0.00;;;;;;;;;;4943385;28;20038;-63
2021/09/28 03:54:32;;;;;;;0.00;0.00;;;;;;;;;;4965929;28;20030;-62
2021/09/28 03:57:00;;;;;;;0.00;0.00;;;;;;;;;;4966660;28;20045;-63
2021/09/28 03:59:26;;;;;;;0.00;0.00;;;;;;;;;;4929791;28;20049;-63
2021/09/28 04:01:51;;;;;;;0.22;0.22;;;;;;;;;;4927132;28;20034;-62
2021/09/28 04:04:19;;;;;;;0.00;0.00;;;;;;;;;;4967233;28;21040;-62
2021/09/28 04:06:44;;;;;;;0.57;0.20;;;;;;;;;;4968578;28;20038;-61
2021/09/28 04:09:12;;;;;;;0.00;0.00;;;;;;;;;;4950625;28;20116;-62
2021/09/28 04:11:40;;;;;;;0.00;0.00;;;;;;;;;;4950396;28;20116;-62
2021/09/28 04:14:11;;;;;;;1.25;1.20;;;;;;;;;;4951176;28;20042;-63
2021/09/28 04:16:39;;;;;;;0.28;0.25;;;;;;;;;;4945672;28;20041;-62
2021/09/28 04:19:07;;;;;;;0.00;0.00;;;;;;;;;;4931657;28;21878;-62
2021/09/28 04:21:37;;;;;;;0.00;0.00;;;;;;;;;;4950819;28;20029;-62
2021/09/28 04:24:03;;;;;;;0.00;0.00;;;;;;;;;;4945101;28;20038;-62
2021/09/28 04:26:34;;;;;;;0.00;0.00;;;;;;;;;;4926417;28;20160;-62
2021/09/28 04:29:01;;;;;;;0.00;0.00;;;;;;;;;;4944141;28;20050;-64
2021/09/28 04:31:31;;;;;;;0.00;0.00;;;;;;;;;;4946406;28;20030;-62
2021/09/28 04:33:59;;;;;;;5.05;1.13;;;;;;;;;;4934964;28;20038;-61
2021/09/28 04:36:28;;;;;;;0.05;0.05;;;;;;;;;;4942760;28;20910;-61
2021/09/28 04:38:54;;;;;;;0.90;0.28;;;;;;;;;;4942760;28;20042;-62
2021/09/28 04:41:21;;;;;;;0.10;0.10;;;;;;;;;;4950193;28;20946;-62
2021/09/28 04:43:49;;;;;;;0.17;0.17;;;;;;;;;;4936202;28;20124;-62
2021/09/28 04:46:17;;;;;;;0.20;0.20;;;;;;;;;;4966720;28;20517;-62
2021/09/28 04:48:44;;;;;;;0.00;0.00;;;;;;;;;;4934848;28;20614;-61
2021/09/28 04:51:09;;;;;;;1.25;0.85;;;;;;;;;;4943098;28;20066;-61
2021/09/28 04:53:35;;;;;;;0.00;0.00;;;;;;;;;;4970388;28;20034;-62
2021/09/28 04:56:00;;;;;;;0.00;0.00;;;;;;;;;;4950793;28;20049;-62
2021/09/28 04:58:26;;;;;;;0.05;0.05;;;;;;;;;;4926519;28;20066;-62
2021/09/28 05:00:52;;;;;;;0.28;0.28;;;;;;;;;;4926873;28;21525;-63
2021/09/28 05:03:20;;;;;;;0.90;0.30;;;;;;;;;;4958919;28;20034;-62
2021/09/28 05:05:50;;;;;;;0.20;0.20;;;;;;;;;;4925935;28;20038;-62
2021/09/28 05:08:15;;;;;;;0.47;0.22;;;;;;;;;;4924877;28;20100;-61
2021/09/28 05:10:43;;;;;;;0.13;0.13;;;;;;;;;;4942125;28;20065;-61
2021/09/28 05:13:11;;;;;;;1.05;0.73;;;;;;;;;;4951341;28;20183;-62
2021/09/28 05:15:41;;;;;;;0.00;0.00;;;;;;;;;;4958540;28;20053;-62
2021/09/28 05:18:07;;;;;;;0.00;0.00;;;;;;;;;;4950804;28;20070;-61
2021/09/28 05:20:37;;;;;;;0.10;0.10;;;;;;;;;;4943509;28;20042;-62
2021/09/28 05:23:08;;;;;;;0.00;0.00;;;;;;;;;;4942280;28;20026;-62
2021/09/28 05:25:35;;;;;;;0.63;0.63;;;;;;;;;;4958123;28;20053;-62
2021/09/28 05:28:03;;;;;;;0.22;0.22;;;;;;;;;;4943988;28;20042;-62
2021/09/28 05:30:33;;;;;;;0.08;0.08;;;;;;;;;;4941337;28;20034;-61
2021/09/28 05:32:59;;;;;;;0.00;0.00;;;;;;;;;;4959736;28;20109;-62
2021/09/28 05:35:29;;;;;;;0.00;0.00;;;;;;;;;;4967082;28;20049;-61
2021/09/28 05:37:57;;;;;;;0.00;0.00;;;;;;;;;;4948939;28;20898;-61
2021/09/28 05:40:23;;;;;;;0.00;0.00;;;;;;;;;;4951129;28;20046;-61
2021/09/28 05:42:54;;;;;;;0.13;0.13;;;;;;;;;;4957989;28;20023;-61
2021/09/28 05:45:21;;;;;;;0.00;0.00;;;;;;;;;;4952139;28;20038;-62
2021/09/28 05:47:48;;;;;;;0.08;0.08;;;;;;;;;;4940318;28;20045;-61
2021/09/28 05:50:20;;;;;;;0.00;0.00;;;;;;;;;;4939766;28;20050;-61
2021/09/28 05:52:48;;;;;;;0.00;0.00;;;;;;;;;;4925522;28;21448;-63
2021/09/28 05:55:16;;;;;;;0.60;0.60;;;;;;;;;;4933931;28;20129;-61
2021/09/28 05:57:44;;;;;;;0.00;0.00;;;;;;;;;;4939850;28;20049;-60
2021/09/28 06:00:15;;;;;;;0.20;0.20;;;;;;;;;;4942805;28;20058;-60
2021/09/28 06:02:42;;;;;;;0.10;0.10;;;;;;;;;;4933434;28;21095;-62
2021/09/28 06:05:09;;;;;;;0.00;0.00;;;;;;;;;;4968233;28;20971;-62
2021/09/28 06:07:35;;;;;;;0.00;0.00;;;;;;;;;;4943854;28;20489;-62
2021/09/28 06:10:01;;;;;;;0.00;0.00;;;;;;;;;;4965885;28;20038;-61
2021/09/28 06:12:29;;;;;;;0.00;0.00;;;;;;;;;;4947960;28;20062;-62
2021/09/28 06:14:59;;;;;;;0.00;0.00;;;;;;;;;;4935496;28;20201;-61
2021/09/28 06:17:27;;;;;;;0.13;0.13;;;;;;;;;;4949534;28;20053;-61
2021/09/28 06:20:02;;;;;;;0.10;0.10;;;;;;;;;;4926579;28;20030;-61
2021/09/28 06:22:29;;;;;;;0.00;0.00;;;;;;;;;;4940219;28;20697;-61
2021/09/28 06:25:00;;;;;;;0.00;0.00;;;;;;;;;;4926064;28;20451;-61
2021/09/28 06:27:26;;;;;;;0.00;0.00;;;;;;;;;;4964416;28;20042;-62
2021/09/28 06:29:53;;;;;;;0.15;0.15;;;;;;;;;;4943232;28;20711;-63
2021/09/28 06:32:22;;;;;;;0.28;0.28;;;;;;;;;;4925526;28;20041;-62
2021/09/28 06:34:50;;;;;;;0.38;0.38;;;;;;;;;;4927819;28;20809;-62
2021/09/28 06:37:18;;;;;;;0.08;0.08;;;;;;;;;;4926997;28;20046;-62
2021/09/28 06:39:49;;;;;;;0.20;0.20;;;;;;;;;;4965469;28;20134;-62
2021/09/28 06:42:14;;;;;;;0.00;0.00;;;;;;;;;;4924144;28;20046;-63
2021/09/28 06:44:39;;;;;;;0.08;0.08;;;;;;;;;;4925313;28;20066;-63
2021/09/28 06:47:05;;;;;;;0.00;0.00;;;;;;;;;;4932396;28;20034;-62
2021/09/28 06:49:31;;;;;;;0.00;0.00;;;;;;;;;;4943448;28;20038;-62
2021/09/28 06:52:01;;;;;;;0.10;0.10;;;;;;;;;;4948968;28;20054;-62
2021/09/28 06:54:29;;;;;;;0.00;0.00;;;;;;;;;;4942349;28;20034;-62
2021/09/28 06:57:00;;;;;;;0.05;0.05;;;;;;;;;;4965629;28;20037;-63
2021/09/28 06:59:28;;;;;;;0.00;0.00;;;;;;;;;;4964655;28;21936;-63
2021/09/28 07:01:53;;;;;;;0.20;0.20;;;;;;;;;;4924856;28;20050;-62
2021/09/28 07:04:19;;;;;;;0.00;0.00;;;;;;;;;;4943915;28;20107;-62
2021/09/28 07:06:47;;;;;;;0.00;0.00;;;;;;;;;;4937189;28;20074;-62
2021/09/28 07:09:15;;;;;;;0.32;0.32;;;;;;;;;;4932197;28;20405;-62
2021/09/28 07:11:42;;;;;;;0.00;0.00;;;;;;;;;;4937517;28;20069;-62
2021/09/28 07:14:11;;;;;;;0.20;0.20;;;;;;;;;;4928980;28;20125;-62
2021/09/28 07:16:39;;;;;;;0.00;0.00;;;;;;;;;;4945002;28;20034;-63
2021/09/28 07:19:06;;;;;;;0.00;0.00;;;;;;;;;;4928649;28;20031;-63
2021/09/28 07:21:32;;;;;;;0.73;0.73;;;;;;;;;;4960752;28;20038;-63
2021/09/28 07:23:59;;;;;;;0.43;0.30;;;;;;;;;;4960224;28;20158;-63
2021/09/28 07:26:29;;;;;;;0.00;0.00;;;;;;;;;;4943904;28;20109;-63
2021/09/28 07:28:59;;;;;;;0.00;0.00;;;;;;;;;;4961563;28;20038;-63
2021/09/28 07:31:27;;;;;;;0.98;0.38;;;;;;;;;;4955568;28;20342;-64
2021/09/28 07:33:56;;;;;;;0.08;0.08;;;;;;;;;;4952618;28;20046;-63
2021/09/28 07:36:22;;;;;;;1.85;0.82;;;;;;;;;;4976900;28;20096;-63
2021/09/28 07:38:47;;;;;;;0.00;0.00;;;;;;;;;;4952714;28;20695;-62
2021/09/28 07:41:13;;;;;;;0.30;0.10;;;;;;;;;;4935573;28;20050;-63
2021/09/28 07:43:45;;;;;;;0.00;0.00;;;;;;;;;;4954551;28;20081;-64
2021/09/28 07:46:15;;;;;;;0.43;0.43;;;;;;;;;;4929351;28;20092;-63
2021/09/28 07:48:45;;;;;;;5.68;0.20;;;;;;;;;;4966339;28;20626;-63
2021/09/28 07:51:10;;;;;;;0.05;0.05;;;;;;;;;;4927018;28;20252;-65
2021/09/28 07:53:38;;;;;;;0.00;0.00;;;;;;;;;;4951454;28;20493;-65
2021/09/28 07:56:11;;;;;;;0.20;0.10;;;;;;;;;;4949670;28;20124;-64
2021/09/28 07:58:39;;;;;;;0.17;0.17;;;;;;;;;;4965411;28;20062;-65
2021/09/28 08:01:05;;;;;;;0.00;0.00;;;;;;;;;;4977417;28;20042;-66
2021/09/28 08:03:32;;;;;;;1.25;0.70;;;;;;;;;;4931528;28;20081;-65
2021/09/28 08:06:03;;;;;;;0.10;0.10;;;;;;;;;;4952890;28;20950;-65
2021/09/28 08:08:28;;;;;;;0.20;0.20;;;;;;;;;;4955717;28;20038;-66
2021/09/28 08:10:55;;;;;;;0.00;0.00;;;;;;;;;;4927457;28;20093;-66
2021/09/28 08:13:23;;;;;;;0.05;0.05;;;;;;;;;;4968925;28;20038;-65
2021/09/28 08:15:59;;;;;;;0.00;0.00;;;;;;;;;;4948985;28;20034;-66
2021/09/28 08:18:27;;;;;;;0.17;0.17;;;;;;;;;;4961310;28;20049;-67
2021/09/28 08:20:52;;;;;;;0.52;0.45;;;;;;;;;;4944563;28;20228;-66
2021/09/28 08:23:20;;;;;;;0.10;0.10;;;;;;;;;;4938118;28;20143;-67
2021/09/28 08:25:59;;;;;;;0.45;0.15;;;;;;;;;;4959025;28;20117;-67
2021/09/28 08:31:17;;;;;;;0.08;0.08;;;;;;;;;;4966590;28;20034;-67
2021/09/28 08:33:44;;;;;;;0.20;0.20;;;;;;;;;;4951960;28;20046;-67
2021/09/28 08:36:09;;;;;;;0.00;0.00;;;;;;;;;;4936009;28;20038;-68
2021/09/28 08:38:37;;;;;;;1.27;0.20;;;;;;;;;;4951018;28;20034;-68
2021/09/28 08:41:04;;;;;;;2.60;0.45;;;;;;;;;;4953803;28;20209;-68
2021/09/28 08:43:29;;;;;;;0.00;0.00;;;;;;;;;;4965028;28;20114;-68
2021/09/28 08:45:57;;;;;;;0.25;0.15;;;;;;;;;;4953807;28;20027;-67
2021/09/28 08:48:25;;;;;;;0.20;0.20;;;;;;;;;;4943605;28;20026;-67
2021/09/28 08:50:55;;;;;;;0.00;0.00;;;;;;;;;;4966956;28;20133;-67
2021/09/28 08:53:25;;;;;;;1.25;1.15;;;;;;;;;;4957089;28;20050;-68
2021/09/28 08:55:50;;;;;;;0.00;0.00;;;;;;;;;;4926849;28;20097;-65
2021/09/28 08:58:15;;;;;;;0.75;0.38;;;;;;;;;;4940850;28;20042;-68
2021/09/28 09:00:44;;;;;;;0.17;0.17;;;;;;;;;;4931767;28;20035;-68
2021/09/28 09:03:28;;;;;;;0.13;0.13;;;;;;;;;;4942102;28;20033;-68
2021/09/28 09:05:57;;;;;;;1.02;0.68;;;;;;;;;;4935829;28;20018;-67
2021/09/28 09:08:27;;;;;;;0.70;0.55;;;;;;;;;;4958492;28;20474;-67
2021/09/28 09:11:02;;;;;;;0.10;0.10;;;;;;;;;;4958072;28;20034;-68
2021/09/28 09:13:36;;;;;;;0.10;0.10;;;;;;;;;;4968103;28;20173;-68
2021/09/28 09:16:04;;;;;;;0.15;0.15;;;;;;;;;;4945719;28;20308;-69
2021/09/28 09:18:30;;;;;;;0.10;0.10;;;;;;;;;;4968412;28;20033;-69
2021/09/28 09:20:59;;;;;;;0.30;0.30;;;;;;;;;;4969798;28;22079;-69
2021/09/28 09:23:35;;;;;;;0.10;0.10;;;;;;;;;;4942497;28;20050;-69
2021/09/28 09:26:05;;;;;;;0.00;0.00;;;;;;;;;;4943766;28;20662;-68
2021/09/28 09:28:32;;;;;;;1.02;0.85;;;;;;;;;;4950741;28;20073;-69
2021/09/28 09:31:12;;;;;;;0.05;0.05;;;;;;;;;;4954437;28;20070;-69
2021/09/28 09:33:44;;;;;;;0.65;0.32;;;;;;;;;;4926465;28;20042;-69
2021/09/28 09:36:15;;;;;;;0.00;0.00;;;;;;;;;;4966961;28;20033;-67
2021/09/28 09:38:44;;;;;;;0.08;0.08;;;;;;;;;;4943151;28;20038;-68
2021/09/28 09:41:10;;;;;;;0.00;0.00;;;;;;;;;;4943168;28;20162;-70
2021/09/28 09:43:40;;;;;;;0.75;0.73;;;;;;;;;;4926361;28;20217;-70
2021/09/28 09:46:06;;;;;;;1.45;0.80;;;;;;;;;;4969870;28;20244;-71
2021/09/28 09:48:34;;;;;;;0.00;0.00;;;;;;;;;;4966344;28;20100;-70
2021/09/28 09:51:11;;;;;;;0.25;0.25;;;;;;;;;;4952513;28;20038;-70
2021/09/28 09:53:50;;;;;;;0.10;0.10;;;;;;;;;;4924442;28;20688;-71
2021/09/28 09:56:16;;;;;;;0.00;0.00;;;;;;;;;;4963549;28;20027;-70
2021/09/28 09:58:44;;;;;;;0.00;0.00;;;;;;;;;;4967931;28;20042;-70
2021/09/28 10:01:13;;;;;;;0.00;0.00;;;;;;;;;;4967564;28;20046;-71
2021/09/28 10:03:42;;;;;;;0.22;0.10;;;;;;;;;;4942827;28;20069;-70
2021/09/28 10:06:11;;;;;;;0.15;0.15;;;;;;;;;;4957249;28;20023;-70
2021/09/28 10:08:42;;;;;;;1.00;0.28;;;;;;;;;;4967612;28;20183;-70
2021/09/28 10:11:10;;;;;;;0.10;0.10;;;;;;;;;;4965587;28;20035;-71
2021/09/28 10:13:53;;;;;;;0.20;0.20;;;;;;;;;;4942436;28;20106;-68
2021/09/28 10:16:34;;;;;;;0.40;0.40;;;;;;;;;;4958703;28;20065;-70
2021/09/28 10:19:05;;;;;;;0.47;0.47;;;;;;;;;;4961451;28;20057;-70
2021/09/28 10:21:38;;;;;;;0.10;0.10;;;;;;;;;;4946227;28;20038;-69
2021/09/28 10:24:21;;;;;;;0.00;0.00;;;;;;;;;;4945832;28;20046;-70
2021/09/28 10:27:08;;;;;;;0.10;0.10;;;;;;;;;;4925767;28;20030;-71
2021/09/28 10:29:37;;;;;;;0.35;0.35;;;;;;;;;;4925664;28;20026;-70
2021/09/28 10:32:22;;;;;;;0.55;0.52;;;;;;;;;;4964751;28;20049;-68
2021/09/28 10:35:09;;;;;;;0.40;0.20;;;;;;;;;;4952120;28;20174;-69
2021/09/28 10:37:50;;;;;;;0.95;0.85;;;;;;;;;;4948605;28;20088;-68
2021/09/28 10:40:21;;;;;;;0.70;0.30;;;;;;;;;;4951505;28;20068;-70
2021/09/28 10:43:02;;;;;;;0.00;0.00;;;;;;;;;;4947890;28;20086;-69
2021/09/28 10:45:28;;;;;;;0.00;0.00;;;;;;;;;;4966907;28;21537;-71
2021/09/28 10:47:59;;;;;;;1.15;0.38;;;;;;;;;;4946846;28;20030;-70
2021/09/28 10:50:27;;;;;;;0.15;0.15;;;;;;;;;;4931889;28;22001;-70
2021/09/28 10:52:55;;;;;;;0.00;0.00;;;;;;;;;;4950552;28;20129;-69
2021/09/28 10:55:25;;;;;;;0.00;0.00;;;;;;;;;;4953037;28;20039;-72
2021/09/28 10:57:58;;;;;;;0.00;0.00;;;;;;;;;;4945565;28;20031;-71
2021/09/28 11:00:30;;;;;;;0.10;0.10;;;;;;;;;;4952385;28;20077;-72
2021/09/28 11:02:58;;;;;;;0.00;0.00;;;;;;;;;;4969066;28;20080;-69
2021/09/28 11:05:37;;;;;;;0.10;0.10;;;;;;;;;;4946356;28;20026;-70
2021/09/28 11:08:03;;;;;;;0.10;0.10;;;;;;;;;;4932727;28;20030;-70
2021/09/28 11:10:32;;;;;;;0.65;0.65;;;;;;;;;;4955354;28;20345;-70
2021/09/28 11:12:57;;;;;;;0.15;0.10;;;;;;;;;;4945827;28;20046;-71
2021/09/28 11:15:24;;;;;;;0.00;0.00;;;;;;;;;;4954421;28;20156;-71
2021/09/28 11:17:53;;;;;;;0.00;0.00;;;;;;;;;;4967439;28;20877;-72
2021/09/28 11:20:27;;;;;;;0.00;0.00;;;;;;;;;;4945859;28;20030;-69
2021/09/28 11:23:10;;;;;;;0.00;0.00;;;;;;;;;;4945181;28;20445;-71
2021/09/28 11:25:53;;;;;;;0.40;0.40;;;;;;;;;;4944505;28;20121;-72
2021/09/28 11:28:20;;;;;;;0.00;0.00;;;;;;;;;;4954484;28;20057;-71
2021/09/28 11:30:56;;;;;;;0.10;0.10;;;;;;;;;;4944220;28;20034;-69
2021/09/28 11:33:24;;;;;;;0.00;0.00;;;;;;;;;;4952545;28;20046;-72
2021/09/28 11:35:58;;;;;;;3.63;0.73;;;;;;;;;;4925355;28;20046;-70
2021/09/28 11:38:27;;;;;;;0.20;0.10;;;;;;;;;;4946673;28;20824;-72
2021/09/28 11:41:00;;;;;;;0.25;0.20;;;;;;;;;;4938147;28;20031;-69
2021/09/28 11:43:28;;;;;;;0.10;0.10;;;;;;;;;;4959418;28;20113;-70
2021/09/28 11:46:04;;;;;;;0.00;0.00;;;;;;;;;;4951874;28;20038;-69
2021/09/28 11:48:38;;;;;;;0.08;0.08;;;;;;;;;;4964364;28;20034;-67
2021/09/28 11:51:13;;;;;;;0.00;0.00;;;;;;;;;;4951155;28;20093;-70
2021/09/28 11:53:45;;;;;;;0.00;0.00;;;;;;;;;;4949269;28;20039;-69
2021/09/28 11:56:23;;;;;;;2.10;0.52;;;;;;;;;;4937979;28;20042;-69
2021/09/28 11:58:51;;;;;;;0.00;0.00;;;;;;;;;;4963272;28;20055;-69
2021/09/28 12:01:19;;;;;;;0.00;0.00;;;;;;;;;;4963169;28;20068;-70
2021/09/28 12:09:34;;;;;;;0.00;0.00;;;;;;;;;;4962645;28;20033;-67
2021/09/28 12:12:11;;;;;;;7.50;1.08;;;;;;;;;;4956310;28;20037;-66
2021/09/28 12:14:50;;;;;;;4.68;0.77;;;;;;;;;;4962377;28;20064;-69
2021/09/28 12:17:16;;;;;;;5.45;0.98;;;;;;;;;;4929604;28;20391;-68
2021/09/28 12:19:43;;;;;;;5.63;0.75;;;;;;;;;;4945652;28;20034;-67
2021/09/28 12:22:11;;;;;;;5.78;0.73;;;;;;;;;;4969375;28;22048;-69
2021/09/28 12:24:46;;;;;;;6.72;1.30;;;;;;;;;;4960958;28;20077;-67
2021/09/28 12:27:13;;;;;;;6.20;0.95;;;;;;;;;;4944753;28;20155;-67
2021/09/28 12:29:43;;;;;;;9.40;1.38;;;;;;;;;;4972442;28;20034;-68
2021/09/28 12:32:17;;;;;;;6.28;1.15;;;;;;;;;;4969596;28;20117;-68
2021/09/28 12:34:47;;;;;;;5.82;0.75;;;;;;;;;;4928241;28;20057;-67
2021/09/28 12:37:18;;;;;;;7.60;1.05;;;;;;;;;;4936167;28;22281;-69
2021/09/28 12:40:00;;;;;;;6.60;1.15;;;;;;;;;;4928023;28;20039;-67
2021/09/28 12:42:28;;;;;;;6.30;1.10;;;;;;;;;;4950030;28;20042;-68
2021/09/28 12:45:06;;;;;;;9.45;1.33;;;;;;;;;;4937187;28;21071;-70
2021/09/28 12:47:44;;;;;;;4.25;1.17;;;;;;;;;;4960313;28;20034;-67
2021/09/28 12:50:31;;;;;;;4.63;1.00;;;;;;;;;;4967866;28;20042;-67
2021/09/28 12:53:08;;;;;;;8.55;1.33;;;;;;;;;;4933071;28;20038;-68
2021/09/28 12:55:38;;;;;;;7.47;1.52;;;;;;;;;;4950174;28;20118;-67
2021/09/28 12:58:07;;;;;;;6.43;1.08;;;;;;;;;;4950317;28;20066;-67
2021/09/28 13:00:32;;;;;;;3.65;1.05;;;;;;;;;;4961733;28;20031;-67
2021/09/28 13:02:58;;;;;;;5.15;1.08;;;;;;;;;;4943753;28;20031;-68
2021/09/28 13:05:32;;;;;;;4.60;0.98;;;;;;;;;;4952547;28;20095;-67
2021/09/28 13:07:58;;;;;;;6.95;1.20;;;;;;;;;;4925715;28;20615;-69
2021/09/28 13:10:26;;;;;;;7.05;1.40;;;;;;;;;;4925941;28;20074;-69
2021/09/28 13:12:51;;;;;;;6.60;1.13;;;;;;;;;;4938772;28;20543;-66
2021/09/28 13:15:21;;;;;;;4.13;1.05;;;;;;;;;;4908746;28;20046;-66
2021/09/28 13:17:49;;;;;;;10.45;1.77;;;;;;;;;;4957718;28;20222;-72
2021/09/28 13:20:18;;;;;;;4.38;1.15;;;;;;;;;;4957424;28;20114;-68
2021/09/28 13:22:44;;;;;;;4.28;1.05;;;;;;;;;;4956908;28;20050;-66
2021/09/28 13:25:12;;;;;;;5.90;0.90;;;;;;;;;;4964404;28;20034;-66
2021/09/28 13:27:44;;;;;;;3.47;1.42;;;;;;;;;;4950166;28;20818;-67
2021/09/28 13:30:09;;;;;;;5.38;0.93;;;;;;;;;;4943382;28;20105;-66
2021/09/28 13:32:39;;;;;;;6.93;0.95;;;;;;;;;;4947835;28;20196;-66
2021/09/28 13:35:05;;;;;;;5.75;1.15;;;;;;;;;;4940991;28;20078;-66
2021/09/28 13:37:35;;;;;;;5.63;1.00;;;;;;;;;;4941304;28;20711;-68
2021/09/28 13:40:01;;;;;;;4.53;1.15;;;;;;;;;;4920833;28;20050;-67
2021/09/28 13:42:27;;;;;;;8.98;1.13;;;;;;;;;;4925325;28;20115;-65
2021/09/28 13:44:52;;;;;;;6.43;0.90;;;;;;;;;;4904039;28;20035;-65
2021/09/28 13:47:23;;;;;;;6.57;1.00;;;;;;;;;;4899667;28;21105;-67
2021/09/28 13:49:48;;;;;;;5.78;0.75;;;;;;;;;;4890635;28;20532;-67
2021/09/28 13:52:19;;;;;;;5.00;1.30;;;;;;;;;;4920411;28;20024;-66
2021/09/28 13:54:46;;;;;;;5.45;1.08;;;;;;;;;;4920122;28;20047;-66
2021/09/28 13:57:14;;;;;;;7.22;0.77;;;;;;;;;;4902879;28;20043;-66
2021/09/28 13:59:42;;;;;;;4.47;0.60;;;;;;;;;;4905331;28;20047;-66
2021/09/28 14:02:10;;;;;;;8.73;0.88;;;;;;;;;;4919786;28;20036;-65
2021/09/28 14:04:42;;;;;;;4.03;0.85;;;;;;;;;;4903947;28;20755;-66
2021/09/28 14:07:11;;;;;;;4.28;0.60;;;;;;;;;;4927604;28;20035;-67
2021/09/28 14:09:39;;;;;;;3.33;0.60;;;;;;;;;;4913352;28;20049;-66
2021/09/28 14:12:10;;;;;;;3.42;1.00;;;;;;;;;;4928035;28;20028;-65
2021/09/28 14:14:40;;;;;;;6.47;1.00;;;;;;;;;;4936142;28;20032;-66
2021/09/28 14:17:09;;;;;;;4.97;1.00;;;;;;;;;;4912906;28;20047;-67
2021/09/28 14:19:37;;;;;;;7.95;1.10;;;;;;;;;;4912963;28;20066;-65
2021/09/28 14:22:06;;;;;;;5.55;0.82;;;;;;;;;;4931464;28;20035;-65
2021/09/28 14:24:33;;;;;;;4.57;1.15;;;;;;;;;;4926153;28;20037;-65
2021/09/28 14:26:59;;;;;;;3.78;0.75;;;;;;;;;;4931547;28;20110;-66
2021/09/28 14:29:29;;;;;;;7.10;1.00;;;;;;;;;;4919074;28;20041;-66
2021/09/28 14:31:54;;;;;;;7.85;0.90;;;;;;;;;;4946975;28;20035;-66
2021/09/28 14:34:22;;;;;;;3.92;0.88;;;;;;;;;;4911695;28;20047;-65
2021/09/28 14:36:53;;;;;;;6.32;1.30;;;;;;;;;;4940849;28;20042;-65
2021/09/28 14:39:22;;;;;;;4.70;0.90;;;;;;;;;;4924785;28;20046;-65
2021/09/28 14:41:48;;;;;;;4.78;1.20;;;;;;;;;;4923642;28;20090;-63
2021/09/28 14:44:14;;;;;;;7.88;1.13;;;;;;;;;;4926194;28;20475;-65
2021/09/28 14:46:39;;;;;;;2.78;0.80;;;;;;;;;;4898785;28;20031;-65
2021/09/28 14:49:05;;;;;;;5.60;1.25;;;;;;;;;;4926030;28;20395;-65
2021/09/28 14:51:35;;;;;;;8.57;1.27;;;;;;;;;;4918722;28;20038;-63
2021/09/28 14:54:03;;;;;;;5.95;1.02;;;;;;;;;;4940023;28;20039;-65
2021/09/28 14:56:34;;;;;;;8.57;0.82;;;;;;;;;;4931777;28;20042;-65
2021/09/28 14:59:03;;;;;;;8.45;0.73;;;;;;;;;;4924701;28;20043;-64
2021/09/28 15:01:31;;;;;;;3.47;0.75;;;;;;;;;;4957865;28;20039;-65
2021/09/28 15:04:00;;;;;;;11.10;1.25;;;;;;;;;;4949506;28;20035;-64
2021/09/28 15:06:26;;;;;;;11.07;0.93;;;;;;;;;;4892900;28;20041;-64